Fort Smith, AR (72903)

7:16 AM CST on January 25, 2015 (GMT -0600)
Sebastian County EOC | Change Station
CLOSE
Current Station
Personal Weather Station
Location: Fort Smith, AR
Elevation: 442 ft
Nearby Weather Stations

Elev 442 ft 35.32 °N, 94.34 °W | Updated 9 minutes ago

Mostly Cloudy
Mostly Cloudy
46.6 °F
Feels Like 42 °F
N
8.9
Wind Variable Wind from West

Today
High -- | Low -- °F
--% Chance of Precip.
Yesterday
High -- | Low -- °F
Precip. -- in
7:21 AM 5:38 PM
Waxing Crescent, 32% visible
Pressure 29.80 in
Visibility 10.0 miles
Clouds Scattered Clouds 9000 ft
Mostly Cloudy 11000 ft
Windchill 42 °F
Dew Point 38 °F
Humidity 73%
Rainfall 0.00 in
Snow Depth Not available.
UV 0 out of 12
Pollen 5.40 out of 12
Air Quality Not available.
Flu Activity Not available.
METAR KFSM 251253Z 25010KT 10SM SCT090 BKN110 07/03 A2980 RMK AO2 SLP091 T00720033

More Conditions Fewer Conditions

Pressure 29.80 in
Visibility 10.0 miles
Clouds Scattered Clouds 9000 ft
Mostly Cloudy 11000 ft
Windchill 42 °F
Dew Point 38 °F
Humidity 73%
Rainfall 0.00 in
Snow Depth Not available.
UV 0 out of 12
Pollen 5.40 out of 12
Air Quality Not available.
Flu Activity Not available.
METAR KFSM 251253Z 25010KT 10SM SCT090 BKN110 07/03 A2980 RMK AO2 SLP091 T00720033

More Conditions Fewer Conditions

Nowcast | as of 5:32 am CST on January 25, 2015

At 530 am...National Weather Service Doppler radar continued to show patches of light rain and drizzle across far eastern Oklahoma and western Arkansas...mainly east of a Rogers Arkansas to Sallisaw line. Movement was to the east-southeast at 45 mph. Through 7 am...patches of light rain and drizzle will continue mainly across western Arkansas.

×

10-Day Weather Forecast

Almanac

Astronomy

Jan. 25, 2015 Rise Set
Actual Time
Civil Twilight
Nautical Twilight
Astronomical Twilight
Moon
Length of Visible Light
Length of Day
Tomorrow will be .
, % of the Moon is Illuminated

Today's Extremes

State Highs State Lows

Community

WunderPhotos

Upload Photos

1,789,881 photos uploaded!

WunderBlogs® & News

Nearby

Air Quality

  Air Quality AQ Index Pollutant
Not available.

Snow Depth

Station Depth Elevation

Earthquake Activity

City Distance Mag. Time & Date
Minimum magnitude displayed is 2.5.

Coastal Water Temperatures

Place Temperature

Nearby Weather Stations